Time;durP1;ratioP1;P1;durP2;ratioP2;P2;SDS_P1;SDS_P2;PMS_P1;PMS_P2;Temp;Humidity;BMP_temperature;BMP_pressure;BME280_temperature;BME280_humidity;BME280_pressure;Samples;Min_cycle;Max_cycle;Signal;HPM_P1;HPM_P2
2021/04/06 00:00:45;;;;;;;2.92;0.95;;;;;;;-1.03;61.83;99287.47;10422436;28;20446;-67
2021/04/06 00:05:48;;;;;;;3.22;0.73;;;;;;;-1.02;61.88;99284.03;10422002;28;20052;-67
2021/04/06 00:10:56;;;;;;;2.80;0.88;;;;;;;-1.02;61.63;99290.06;10420235;28;20077;-67
2021/04/06 00:15:58;;;;;;;2.63;1.02;;;;;;;-1.06;61.63;99288.34;10420259;28;20053;-67
2021/04/06 00:21:03;;;;;;;1.88;0.75;;;;;;;-1.13;62.18;99291.75;10419065;28;20042;-67
2021/04/06 00:26:04;;;;;;;4.60;1.40;;;;;;;-1.09;61.63;99288.31;10401581;28;20081;-67
2021/04/06 00:31:08;;;;;;;1.52;0.70;;;;;;;-1.17;62.12;99287.44;10402061;28;20052;-67
2021/04/06 00:36:10;;;;;;;3.80;0.80;;;;;;;-1.13;61.81;99280.56;10403457;28;20106;-67
2021/04/06 00:41:14;;;;;;;4.35;0.80;;;;;;;-1.17;61.65;99279.69;10401631;28;20137;-67
2021/04/06 00:46:18;;;;;;;2.30;0.80;;;;;;;-1.17;61.51;99279.69;10417918;28;20045;-67
2021/04/06 00:51:20;;;;;;;1.80;0.60;;;;;;;-1.19;61.58;99289.16;10418387;28;20487;-67
2021/04/06 00:56:27;;;;;;;3.35;0.68;;;;;;;-1.22;61.72;99289.13;10400394;28;20045;-68
2021/04/06 01:01:33;;;;;;;1.52;0.93;;;;;;;-1.26;61.63;99287.41;10417601;28;20458;-68
2021/04/06 01:06:52;;;;;;;1.73;0.52;;;;;;;-1.26;61.62;99271.94;10418542;28;20049;-66
2021/04/06 01:11:54;;;;;;;3.03;0.80;;;;;;;-1.36;61.72;99270.19;10400191;28;20097;-67
2021/04/06 01:16:56;;;;;;;4.15;1.10;;;;;;;-1.34;61.97;99271.03;10398705;28;20045;-67
2021/04/06 01:21:59;;;;;;;3.17;0.80;;;;;;;-1.34;61.39;99261.56;10417956;28;20140;-67
2021/04/06 01:27:02;;;;;;;2.35;0.82;;;;;;;-1.51;62.36;99260.66;10439331;28;20491;-67
2021/04/06 01:32:04;;;;;;;3.45;1.02;;;;;;;-1.49;62.27;99266.69;10407241;28;20037;-69
2021/04/06 01:37:05;;;;;;;2.22;0.98;;;;;;;-1.38;61.70;99246.94;10425964;28;20056;-68
2021/04/06 01:42:09;;;;;;;2.28;0.65;;;;;;;-1.50;61.97;99248.66;10425511;28;20044;-68
2021/04/06 01:47:14;;;;;;;2.65;0.75;;;;;;;-1.47;61.97;99249.50;10425835;28;20080;-68
2021/04/06 01:52:15;;;;;;;4.57;0.90;;;;;;;-1.63;62.56;99247.72;10424538;28;20037;-67
2021/04/06 01:57:22;;;;;;;1.63;0.88;;;;;;;-1.46;61.85;99234.91;10425222;28;20187;-68
2021/04/06 02:02:28;;;;;;;4.60;1.00;;;;;;;-1.44;61.57;99236.63;10424003;28;20100;-68
2021/04/06 02:07:37;;;;;;;3.58;0.90;;;;;;;-1.46;61.74;99238.34;10423513;28;20288;-68
2021/04/06 02:12:45;;;;;;;1.58;0.70;;;;;;;-1.45;61.94;99250.38;10423050;28;20076;-67
2021/04/06 02:17:46;;;;;;;4.35;0.90;;;;;;;-1.44;62.02;99246.09;10422359;28;20459;-69
2021/04/06 02:23:01;;;;;;;2.97;0.80;;;;;;;-1.48;61.76;99254.66;10437944;28;20045;-67
2021/04/06 02:28:03;;;;;;;3.30;0.70;;;;;;;-1.47;61.94;99256.38;10423306;28;20054;-68
2021/04/06 02:33:04;;;;;;;2.22;0.90;;;;;;;-1.49;62.03;99252.94;10422118;28;20088;-69
2021/04/06 02:38:06;;;;;;;2.55;0.90;;;;;;;-1.49;61.89;99251.22;10422517;28;20053;-69
2021/04/06 02:43:07;;;;;;;2.05;0.80;;;;;;;-1.52;62.07;99249.47;10421973;28;20040;-67
2021/04/06 02:48:12;;;;;;;6.28;1.45;;;;;;;-1.50;61.74;99252.09;10422674;28;20037;-68
2021/04/06 02:53:17;;;;;;;5.05;0.73;;;;;;;-1.41;61.52;99252.13;10404527;28;20042;-67
2021/04/06 02:58:18;;;;;;;3.35;0.75;;;;;;;-1.54;61.74;99255.50;10422667;28;20041;-68
2021/04/06 03:03:24;;;;;;;2.13;0.90;;;;;;;-1.50;61.82;99253.81;10421301;28;20049;-69
2021/04/06 03:08:31;;;;;;;1.83;0.70;;;;;;;-1.47;61.12;99256.38;10421045;28;20102;-67
2021/04/06 03:13:32;;;;;;;2.33;0.93;;;;;;;-1.49;61.30;99253.81;10402458;28;20052;-67
2021/04/06 03:18:38;;;;;;;2.42;0.85;;;;;;;-1.44;60.99;99246.09;10420786;28;20498;-67
2021/04/06 03:23:39;;;;;;;4.47;0.93;;;;;;;-1.51;61.40;99242.59;10420595;28;20041;-68
2021/04/06 03:28:41;;;;;;;3.45;1.33;;;;;;;-1.50;60.87;99236.63;10421104;28;20072;-68
2021/04/06 03:33:48;;;;;;;3.53;0.95;;;;;;;-1.55;61.15;99223.72;10421361;28;20460;-69
2021/04/06 03:38:51;;;;;;;4.35;0.85;;;;;;;-1.52;61.43;99221.13;10421892;28;20041;-68
2021/04/06 03:43:53;;;;;;;3.72;1.08;;;;;;;-1.50;61.20;99218.59;10419908;28;20460;-69
2021/04/06 03:49:11;;;;;;;4.60;0.90;;;;;;;-1.52;61.27;99215.97;10419030;28;20514;-68
2021/04/06 03:54:42;;;;;;;3.50;1.02;;;;;;;-1.52;61.40;99202.22;10401031;28;20072;-67
2021/04/06 03:59:44;;;;;;;3.38;1.20;;;;;;;-1.59;61.63;99206.53;10547406;22;20047;-64
2021/04/06 04:04:45;;;;;;;3.60;1.38;;;;;;;-1.55;62.05;99208.25;10542294;28;20138;-64
2021/04/06 04:09:46;;;;;;;1.88;1.15;;;;;;;-1.49;62.01;99209.97;10542159;28;20044;-63
2021/04/06 04:14:48;;;;;;;3.53;1.77;;;;;;;-1.42;62.13;99200.53;10544543;28;20202;-63
2021/04/06 04:19:49;;;;;;;2.67;1.55;;;;;;;-1.38;63.40;99199.69;10541090;28;20494;-62
2021/04/06 04:24:50;;;;;;;5.47;2.95;;;;;;;-1.58;67.71;99194.50;10523041;28;20052;-62
2021/04/06 04:29:51;;;;;;;10.10;2.65;;;;;;;-1.82;69.35;99201.25;10541860;28;20414;-63
2021/04/06 04:34:53;;;;;;;6.85;2.90;;;;;;;-1.93;70.52;99199.50;10524258;28;20079;-63
2021/04/06 04:39:54;;;;;;;5.63;2.53;;;;;;;-1.91;70.50;99193.47;10541736;28;20048;-63
2021/04/06 04:45:05;;;;;;;6.82;2.90;;;;;;;-1.88;70.57;99203.81;10541459;28;20054;-65
2021/04/06 04:50:07;;;;;;;5.10;3.20;;;;;;;-1.89;71.47;99203.81;10541579;28;20139;-63
2021/04/06 04:55:10;;;;;;;5.82;3.25;;;;;;;-1.91;71.64;99192.63;10544161;28;20040;-65
2021/04/06 05:00:14;;;;;;;7.07;2.65;;;;;;;-1.80;71.30;99186.69;10549101;28;20040;-62
2021/04/06 05:05:17;;;;;;;4.00;2.78;;;;;;;-1.64;70.37;99187.59;10551867;28;20048;-63
2021/04/06 05:10:18;;;;;;;9.80;2.75;;;;;;;-1.48;68.79;99182.50;10552480;28;20052;-64
2021/04/06 05:15:20;;;;;;;4.50;2.72;;;;;;;-1.35;68.38;99185.09;10550307;28;20040;-61
2021/04/06 05:20:21;;;;;;;4.80;2.60;;;;;;;-1.30;68.03;99188.53;10551316;28;20056;-62
2021/04/06 05:25:23;;;;;;;3.78;2.67;;;;;;;-1.02;67.20;99186.91;10531489;28;20059;-64
2021/04/06 05:30:24;;;;;;;6.20;2.85;;;;;;;-0.96;66.91;99182.59;10531712;28;20052;-62
2021/04/06 05:35:26;;;;;;;5.30;3.30;;;;;;;-0.94;67.79;99186.03;10549453;28;20068;-62
2021/04/06 05:40:27;;;;;;;4.25;2.58;;;;;;;-1.02;69.56;99191.16;10551703;28;20101;-63
2021/04/06 05:45:32;;;;;;;5.75;3.78;;;;;;;-1.10;69.99;99191.19;10533754;28;20044;-62
2021/04/06 05:50:33;;;;;;;3.80;3.15;;;;;;;-1.04;69.68;99191.19;10532738;28;20051;-62
2021/04/06 05:55:35;;;;;;;3.83;2.70;;;;;;;-0.90;69.90;99188.59;10548584;28;20048;-63
2021/04/06 06:00:36;;;;;;;4.70;3.38;;;;;;;-0.85;70.18;99196.34;10548578;28;20089;-63
2021/04/06 06:05:41;;;;;;;6.57;2.88;;;;;;;-0.60;69.82;99192.06;10530719;28;20042;-61
2021/04/06 06:10:42;;;;;;;5.00;3.47;;;;;;;-0.59;69.07;99192.06;10547534;28;20093;-62
2021/04/06 06:16:13;;;;;;;5.97;3.42;;;;;;;-0.43;68.80;99192.91;10549231;28;20040;-63
2021/04/06 06:21:20;;;;;;;5.10;3.53;;;;;;;-0.27;68.69;99178.25;10530103;28;20039;-63
2021/04/06 06:26:21;;;;;;;6.20;2.83;;;;;;;0.25;66.52;99180.69;10546127;28;20040;-63
2021/04/06 06:31:49;;;;;;;4.30;1.90;;;;;;;0.56;64.95;99175.38;10546314;28;20089;-63
2021/04/06 06:37:03;;;;;;;5.93;3.05;;;;;;;0.71;65.11;99180.47;10528995;28;20119;-62
2021/04/06 06:42:11;;;;;;;4.68;3.13;;;;;;;0.14;65.40;99172.97;10545704;28;20044;-62
2021/04/06 06:47:13;;;;;;;;;;;;;;;0.69;64.50;99174.44;10547567;28;20440;-63
2021/04/06 06:52:21;;;;;;;3.72;2.63;;;;;;;1.32;63.10;99168.81;10544913;28;19920;-63
2021/04/06 06:57:40;;;;;;;3.10;2.20;;;;;;;1.15;61.83;99166.34;10545229;28;20071;-62
2021/04/06 07:02:43;;;;;;;5.00;3.10;;;;;;;0.74;62.91;99160.59;10545043;28;20044;-61
2021/04/06 07:08:02;;;;;;;4.50;2.85;;;;;;;0.42;64.17;99162.53;10544453;28;20090;-63
2021/04/06 07:13:20;;;;;;;4.60;2.95;;;;;;;0.57;63.17;99146.06;10543287;28;20458;-58
2021/04/06 07:18:25;;;;;;;3.78;2.40;;;;;;;1.04;61.59;99144.88;10542867;28;20485;-61
2021/04/06 07:23:37;;;;;;;3.33;2.22;;;;;;;1.40;60.79;99147.16;10524714;28;20063;-62
2021/04/06 07:28:41;;;;;;;3.17;2.47;;;;;;;1.55;61.16;99146.19;10543338;28;20048;-61
2021/04/06 07:33:46;;;;;;;3.15;2.88;;;;;;;1.57;60.90;99140.97;10543254;28;20131;-62
2021/04/06 07:38:51;;;;;;;3.70;2.75;;;;;;;1.87;61.00;99142.41;10541747;28;20046;-61
2021/04/06 07:43:54;;;;;;;3.45;2.30;;;;;;;2.17;59.25;99146.34;10542434;28;20040;-61
2021/04/06 07:48:55;;;;;;;2.67;2.47;;;;;;;1.97;60.00;99150.03;10543035;28;20098;-61
2021/04/06 07:54:07;;;;;;;3.40;3.10;;;;;;;2.20;59.77;99164.47;10541976;28;20040;-61
2021/04/06 07:59:09;;;;;;;3.47;2.78;;;;;;;3.18;57.30;99163.09;10523585;28;20051;-61
2021/04/06 08:04:10;;;;;;;4.72;4.32;;;;;;;2.65;58.35;99172.53;10541407;28;20409;-61
2021/04/06 08:09:27;;;;;;;4.82;4.43;;;;;;;1.97;60.89;99181.16;10524837;28;20086;-61
2021/04/06 08:14:31;;;;;;;5.43;4.93;;;;;;;1.92;60.71;99192.44;10539689;28;20059;-60
2021/04/06 08:19:32;;;;;;;5.80;5.30;;;;;;;1.24;61.29;99195.66;10523088;28;20447;-62
2021/04/06 08:24:35;;;;;;;7.25;6.65;;;;;;;1.42;61.72;99206.72;10522421;28;20052;-61
2021/04/06 08:29:37;;;;;;;7.57;7.07;;;;;;;1.35;62.95;99208.50;10540595;28;20082;-60
2021/04/06 08:34:49;;;;;;;6.45;5.95;;;;;;;1.90;62.30;99197.63;10544638;28;20040;-62
2021/04/06 08:39:50;;;;;;;8.55;7.95;;;;;;;2.56;60.69;99198.59;10550044;28;20048;-61
2021/04/06 08:44:57;;;;;;;8.23;7.63;;;;;;;2.14;61.53;99212.06;10549941;28;20085;-63
2021/04/06 08:49:58;;;;;;;6.03;5.63;;;;;;;2.89;58.06;99215.47;10549937;28;20036;-60
2021/04/06 08:55:08;;;;;;;6.95;6.45;;;;;;;2.83;57.64;99213.81;10550245;28;20786;-60
2021/04/06 09:00:14;;;;;;;6.55;6.03;;;;;;;2.69;59.03;99220.91;10547921;28;20506;-61
2021/04/06 09:05:16;;;;;;;8.10;7.50;;;;;;;3.34;58.39;99224.34;10530263;28;20040;-62
2021/04/06 09:10:18;;;;;;;7.00;6.03;;;;;;;3.36;55.29;99230.34;10531251;28;20044;-60
2021/04/06 09:15:20;;;;;;;5.80;5.25;;;;;;;3.72;54.98;99215.06;10550363;28;20043;-61
2021/04/06 09:20:26;;;;;;;6.22;5.82;;;;;;;3.83;55.79;99225.28;10529654;28;20048;-63
2021/04/06 09:25:29;;;;;;;5.47;4.60;;;;;;;4.11;53.84;99228.22;10530553;28;20036;-60
2021/04/06 09:30:33;;;;;;;8.45;4.82;;;;;;;4.58;53.78;99224.72;10547651;28;20051;-62
2021/04/06 09:35:44;;;;;;;8.38;4.53;;;;;;;4.50;53.66;99224.84;10548777;28;20060;-62
2021/04/06 09:40:46;;;;;;;6.20;4.30;;;;;;;3.82;53.54;99227.00;10548143;28;20039;-62
2021/04/06 09:45:49;;;;;;;4.65;4.07;;;;;;;4.09;54.10;99222.22;10546028;28;20046;-64
2021/04/06 09:51:03;;;;;;;6.15;3.03;;;;;;;4.37;49.98;99223.38;10546354;28;20052;-63
2021/04/06 09:56:04;;;;;;;7.68;3.55;;;;;;;4.53;51.04;99206.59;10545655;28;20044;-61
2021/04/06 10:01:24;;;;;;;5.38;3.22;;;;;;;5.07;51.47;99213.22;10526760;22;20086;-68
2021/04/06 10:06:45;;;;;;;5.85;3.13;;;;;;;5.44;50.05;99208.00;10488785;28;20052;-66
2021/04/06 10:11:48;;;;;;;4.20;2.42;;;;;;;5.42;50.37;99196.78;10505954;28;20106;-65
2021/04/06 10:17:01;;;;;;;3.47;2.88;;;;;;;4.98;48.93;99195.22;10505589;28;20040;-66
2021/04/06 10:22:07;;;;;;;4.72;2.45;;;;;;;3.75;51.26;99199.41;10501433;28;20048;-67
2021/04/06 10:27:20;;;;;;;4.07;2.17;;;;;;;3.88;53.41;99192.25;10548066;28;20052;-66
2021/04/06 10:32:34;;;;;;;4.65;2.00;;;;;;;4.35;50.07;99193.09;10548756;28;20486;-66
2021/04/06 10:37:49;;;;;;;6.28;2.50;;;;;;;4.92;51.24;99185.78;10530338;28;20143;-66
2021/04/06 10:42:53;;;;;;;5.05;2.45;;;;;;;4.95;50.68;99177.03;10546752;28;20116;-66
2021/04/06 10:48:05;;;;;;;3.22;2.53;;;;;;;4.99;48.93;99179.53;10539234;28;20055;-67
2021/04/06 10:53:24;;;;;;;2.83;2.22;;;;;;;5.29;49.33;99174.50;10531154;28;20503;-67
2021/04/06 10:58:31;;;;;;;5.32;2.30;;;;;;;5.12;48.80;99166.25;10541249;28;20036;-64
2021/04/06 11:03:42;;;;;;;4.43;2.22;;;;;;;5.18;47.70;99150.44;10505789;28;20032;-67
2021/04/06 11:08:49;;;;;;;4.60;2.15;;;;;;;5.47;48.45;99134.09;10505879;28;20486;-66
2021/04/06 11:13:51;;;;;;;3.15;1.83;;;;;;;5.77;47.53;99127.25;10506270;28;20121;-67
2021/04/06 11:19:06;;;;;;;5.82;2.25;;;;;;;6.33;45.48;99117.03;10507610;28;20075;-66
2021/04/06 11:24:08;;;;;;;1.83;1.38;;;;;;;5.99;45.01;99133.63;10507182;28;20098;-66
2021/04/06 11:29:12;;;;;;;3.22;1.92;;;;;;;4.73;50.67;99142.81;10506066;28;20041;-66
2021/04/06 11:34:15;;;;;;;3.70;2.20;;;;;;;4.00;53.57;99153.88;10505539;28;20413;-67
2021/04/06 11:39:18;;;;;;;3.72;1.95;;;;;;;3.97;53.43;99156.53;10505048;28;20059;-66
2021/04/06 11:44:20;;;;;;;3.10;1.63;;;;;;;3.91;51.15;99146.25;10503175;28;20179;-67
2021/04/06 11:49:22;;;;;;;3.47;1.65;;;;;;;4.07;50.30;99141.59;10504380;28;20052;-67
2021/04/06 11:54:23;;;;;;;4.53;2.00;;;;;;;3.36;59.00;99173.19;10504476;28;20047;-67
2021/04/06 11:59:25;;;;;;;3.45;3.03;;;;;;;3.11;64.18;99174.50;10505013;28;20043;-67
2021/04/06 12:04:29;;;;;;;4.68;2.67;;;;;;;3.51;63.49;99164.31;10504889;28;20044;-68
2021/04/06 12:09:30;;;;;;;3.45;2.08;;;;;;;3.64;63.20;99144.16;10504880;28;20045;-68
2021/04/06 12:14:31;;;;;;;3.50;2.15;;;;;;;3.85;59.81;99133.38;10517333;28;20089;-67
2021/04/06 12:19:33;;;;;;;3.42;1.50;;;;;;;4.50;58.32;99127.72;10526903;28;20036;-69
2021/04/06 12:24:34;;;;;;;4.47;1.45;;;;;;;4.74;54.38;99121.97;10526126;28;20083;-65
2021/04/06 12:29:35;;;;;;;6.55;2.13;;;;;;;5.24;54.76;99116.44;10497441;28;20409;-66
2021/04/06 12:34:37;;;;;;;6.28;1.45;;;;;;;5.20;53.23;99109.59;10486001;28;20049;-65
2021/04/06 12:39:38;;;;;;;3.50;1.50;;;;;;;5.66;53.05;99103.19;10542965;28;20074;-66
2021/04/06 12:44:39;;;;;;;4.40;1.48;;;;;;;5.50;49.22;99100.16;10503206;28;20045;-66
2021/04/06 12:49:44;;;;;;;3.45;1.80;;;;;;;5.65;50.66;99088.44;10484167;28;20044;-66
2021/04/06 12:54:45;;;;;;;4.18;1.63;;;;;;;5.61;51.07;99086.81;10502162;28;20044;-66
2021/04/06 12:59:47;;;;;;;3.95;1.58;;;;;;;5.28;51.22;99097.25;10501906;28;20459;-67
2021/04/06 13:04:48;;;;;;;3.75;1.83;;;;;;;5.37;51.39;99089.19;10483805;28;20558;-66
2021/04/06 13:09:50;;;;;;;3.63;2.35;;;;;;;5.75;49.86;99082.09;10482639;28;20087;-67
2021/04/06 13:14:54;;;;;;;2.90;2.00;;;;;;;5.15;52.77;99143.59;10502286;28;20148;-66
2021/04/06 13:19:55;;;;;;;2.08;0.55;;;;;;;3.28;60.17;99151.72;10504080;28;20044;-66
2021/04/06 13:24:56;;;;;;;7.18;0.50;;;;;;;1.82;63.70;99152.81;10491134;28;20044;-66
2021/04/06 13:29:57;;;;;;;2.28;1.02;;;;;;;1.24;65.25;99148.19;10508451;28;20535;-67
2021/04/06 13:34:58;;;;;;;3.10;0.57;;;;;;;1.18;63.19;99110.25;10489731;28;20048;-67
2021/04/06 13:40:00;;;;;;;1.63;0.60;;;;;;;1.24;63.15;99112.81;10507586;28;20063;-67
2021/04/06 13:45:18;;;;;;;1.17;0.50;;;;;;;1.81;59.21;99104.44;10507168;28;20033;-67
2021/04/06 13:50:35;;;;;;;2.60;0.50;;;;;;;2.19;58.59;99106.56;10489511;28;20067;-69
2021/04/06 13:55:37;;;;;;;5.00;1.50;;;;;;;2.40;60.06;99112.38;10508298;28;20467;-66
2021/04/06 14:00:42;;;;;;;2.03;1.10;;;;;;;2.44;61.66;99101.94;10507380;28;20033;-68
2021/04/06 14:05:45;;;;;;;2.78;1.48;;;;;;;2.72;60.37;99097.19;10508429;28;20044;-66
2021/04/06 14:10:47;;;;;;;1.70;0.60;;;;;;;3.19;56.77;99094.72;10489916;28;20054;-67
2021/04/06 14:15:48;;;;;;;1.85;0.63;;;;;;;3.18;56.80;99087.78;10508368;28;20048;-65
2021/04/06 14:20:50;;;;;;;1.05;0.60;;;;;;;3.06;57.83;99081.09;10505395;28;20150;-67
2021/04/06 14:25:52;;;;;;;1.50;1.02;;;;;;;3.04;57.77;99078.50;10505229;28;20117;-67
2021/04/06 14:30:54;;;;;;;1.35;0.77;;;;;;;3.00;57.79;99074.25;10485854;28;20048;-67
2021/04/06 14:35:56;;;;;;;2.70;0.85;;;;;;;2.93;57.66;99062.25;10505588;28;20049;-66
2021/04/06 14:40:58;;;;;;;2.33;1.10;;;;;;;3.07;57.72;99063.78;10505172;28;20048;-66
2021/04/06 14:46:02;;;;;;;2.50;1.17;;;;;;;2.97;58.50;99060.47;10506171;28;20071;-66
2021/04/06 14:51:11;;;;;;;2.47;1.10;;;;;;;3.28;58.45;99059.06;10487125;28;20135;-67
2021/04/06 14:56:12;;;;;;;3.33;1.42;;;;;;;3.39;58.10;99055.41;10487987;28;20083;-66
2021/04/06 15:01:14;;;;;;;2.10;1.38;;;;;;;3.29;58.19;99054.72;10486988;28;20494;-66
2021/04/06 15:06:28;;;;;;;5.75;2.25;;;;;;;3.08;59.40;99062.88;10505882;28;20087;-67
2021/04/06 15:11:30;;;;;;;3.70;1.60;;;;;;;3.05;58.56;99063.78;10470190;28;20048;-66
2021/04/06 15:16:32;;;;;;;3.88;1.25;;;;;;;3.18;58.32;99069.63;10483058;28;20040;-67
2021/04/06 15:21:54;;;;;;;2.42;1.15;;;;;;;2.88;58.47;99078.78;10486974;28;20040;-68
2021/04/06 15:26:56;;;;;;;1.83;0.90;;;;;;;2.17;62.16;99069.44;10475017;28;20055;-68
2021/04/06 15:31:59;;;;;;;2.65;1.13;;;;;;;1.64;63.19;99049.34;10465546;28;20086;-67
2021/04/06 15:37:02;;;;;;;3.63;1.10;;;;;;;1.50;62.72;99039.16;10487088;28;20048;-65
2021/04/06 15:42:07;;;;;;;1.75;0.85;;;;;;;1.80;61.51;99022.41;10502814;28;20484;-67
2021/04/06 15:47:08;;;;;;;3.67;1.08;;;;;;;2.00;59.51;99014.38;10504264;28;20041;-67
2021/04/06 15:52:21;;;;;;;2.85;0.90;;;;;;;2.21;58.46;99013.19;10502866;28;20052;-67
2021/04/06 15:57:24;;;;;;;4.18;1.20;;;;;;;2.23;57.36;99019.25;10502815;28;20037;-66
2021/04/06 16:02:26;;;;;;;1.23;0.93;;;;;;;2.24;57.59;99032.16;10502561;28;20040;-67
2021/04/06 16:07:27;;;;;;;1.75;0.70;;;;;;;2.10;58.98;99033.25;10501648;28;20083;-66
2021/04/06 16:12:30;;;;;;;3.10;1.30;;;;;;;1.96;59.47;99041.22;10501300;28;20055;-66
2021/04/06 16:17:32;;;;;;;3.15;1.20;;;;;;;1.83;60.39;99061.25;10501016;28;20081;-66
2021/04/06 16:22:35;;;;;;;2.25;1.60;;;;;;;1.76;61.10;99065.63;10499555;28;20052;-67
2021/04/06 16:27:37;;;;;;;2.15;1.52;;;;;;;1.79;61.48;99066.47;10500427;28;20041;-65
2021/04/06 16:32:38;;;;;;;2.45;1.65;;;;;;;1.68;62.22;99064.00;10500532;28;20086;-67
2021/04/06 16:37:40;;;;;;;2.83;1.50;;;;;;;1.70;62.62;99057.94;10500724;28;20098;-66
2021/04/06 16:42:41;;;;;;;3.20;1.70;;;;;;;1.77;62.60;99064.78;10500576;28;20063;-66
2021/04/06 16:47:44;;;;;;;3.95;1.85;;;;;;;1.67;63.91;99064.88;10500481;28;20045;-67
2021/04/06 16:52:45;;;;;;;2.33;1.50;;;;;;;1.64;64.36;99057.13;10500159;28;20072;-66
2021/04/06 16:57:47;;;;;;;10.27;4.15;;;;;;;1.68;64.77;99061.41;10509457;28;20053;-67
2021/04/06 17:02:49;;;;;;;2.03;1.30;;;;;;;1.67;65.81;99089.03;10509493;28;20044;-67
2021/04/06 17:07:50;;;;;;;4.35;1.65;;;;;;;1.69;66.59;99107.19;10508174;28;20059;-66
2021/04/06 17:12:52;;;;;;;2.53;2.10;;;;;;;1.52;68.56;99084.91;10508570;28;20094;-65
2021/04/06 17:17:53;;;;;;;2.55;2.20;;;;;;;1.64;69.49;99070.97;10490910;28;20063;-65
2021/04/06 17:22:55;;;;;;;2.78;2.17;;;;;;;1.62;68.95;99064.94;10507953;28;20036;-67
2021/04/06 17:27:56;;;;;;;2.65;1.80;;;;;;;1.62;68.76;99054.56;10507840;28;20074;-67
2021/04/06 17:33:02;;;;;;;2.17;1.60;;;;;;;1.47;68.90;99060.78;10507587;28;20045;-66
2021/04/06 17:38:06;;;;;;;2.42;1.90;;;;;;;1.42;69.10;99059.97;10489899;28;20062;-65
2021/04/06 17:43:11;;;;;;;3.05;2.03;;;;;;;1.32;68.89;99062.66;10489176;28;20049;-66
2021/04/06 17:48:12;;;;;;;2.30;1.80;;;;;;;1.20;69.01;99063.66;10489233;28;20044;-66
2021/04/06 17:53:14;;;;;;;2.53;2.13;;;;;;;1.35;69.08;99070.41;10508370;28;20037;-68
2021/04/06 17:58:15;;;;;;;4.20;3.28;;;;;;;1.11;69.39;99076.69;10508902;28;20044;-67
2021/04/06 18:03:18;;;;;;;3.50;2.00;;;;;;;1.10;69.37;99080.97;10490825;28;20063;-68
2021/04/06 18:08:19;;;;;;;3.20;2.70;;;;;;;0.88;69.39;99079.44;10507760;28;20044;-67
2021/04/06 18:13:21;;;;;;;3.58;2.38;;;;;;;0.91;69.16;99082.88;10508202;28;20425;-66
2021/04/06 18:18:22;;;;;;;4.28;2.80;;;;;;;0.81;69.28;99081.25;10491349;28;20078;-68
2021/04/06 18:23:25;;;;;;;5.68;2.97;;;;;;;0.70;69.08;99081.31;10508976;28;20060;-66
2021/04/06 18:28:27;;;;;;;6.78;2.83;;;;;;;0.79;68.73;99093.31;10508737;28;20068;-67
2021/04/06 18:33:29;;;;;;;4.00;3.00;;;;;;;0.72;68.96;99096.84;10506378;28;20048;-67
2021/04/06 18:38:37;;;;;;;5.70;3.17;;;;;;;0.81;68.64;99095.91;10510329;28;20037;-67
2021/04/06 18:43:39;;;;;;;3.03;2.63;;;;;;;0.82;67.70;99107.97;10490388;28;20101;-66
2021/04/06 18:48:41;;;;;;;6.13;2.55;;;;;;;0.99;66.84;99108.69;10507509;28;20045;-66
2021/04/06 18:53:44;;;;;;;3.50;2.17;;;;;;;1.10;66.31;99104.28;10489558;28;20135;-68
2021/04/06 18:58:46;;;;;;;3.28;2.70;;;;;;;0.89;67.10;99115.69;10507563;28;20048;-66
2021/04/06 19:03:51;;;;;;;4.65;3.42;;;;;;;1.13;66.12;99113.75;10508539;28;20048;-67
2021/04/06 19:08:53;;;;;;;4.32;2.67;;;;;;;1.23;66.35;99124.00;10507249;28;20510;-67
2021/04/06 19:13:55;;;;;;;4.03;2.72;;;;;;;1.28;66.11;99126.56;10508291;28;20077;-67
2021/04/06 19:18:56;;;;;;;5.55;3.10;;;;;;;1.21;66.64;99136.13;10489058;28;20490;-67
2021/04/06 19:23:58;;;;;;;3.83;2.42;;;;;;;1.19;67.54;99137.84;10506846;28;20036;-66
2021/04/06 19:29:02;;;;;;;3.25;2.25;;;;;;;1.31;67.61;99142.06;10487455;28;20114;-66
2021/04/06 19:34:05;;;;;;;4.63;2.80;;;;;;;1.31;68.04;99149.84;10505160;28;20448;-67
2021/04/06 19:39:06;;;;;;;4.63;3.30;;;;;;;1.27;68.46;99146.41;10504817;28;20052;-66
2021/04/06 19:44:13;;;;;;;4.03;2.85;;;;;;;1.15;69.39;99156.88;10486840;28;20391;-67
2021/04/06 19:49:14;;;;;;;4.13;3.35;;;;;;;1.10;70.36;99173.28;10504526;28;20048;-67
2021/04/06 19:54:15;;;;;;;3.92;3.33;;;;;;;0.85;71.17;99165.72;10486142;28;20497;-67
2021/04/06 19:59:17;;;;;;;3.95;3.30;;;;;;;0.85;71.81;99151.94;10486175;28;20044;-67
2021/04/06 20:04:18;;;;;;;5.72;3.28;;;;;;;0.88;71.28;99144.97;10504074;28;20086;-67
2021/04/06 20:09:19;;;;;;;4.95;2.38;;;;;;;0.86;70.40;99138.97;10504116;28;20109;-67
2021/04/06 20:14:21;;;;;;;3.22;2.92;;;;;;;0.90;70.50;99142.41;10504028;28;20478;-66
2021/04/06 20:19:22;;;;;;;1.45;1.35;;;;;;;0.74;69.58;99129.56;10504243;28;20055;-66
2021/04/06 20:24:23;;;;;;;2.33;1.48;;;;;;;0.73;69.38;99121.81;10504705;28;20406;-65
2021/04/06 20:29:25;;;;;;;1.65;0.88;;;;;;;0.55;69.53;99130.56;10485883;28;20052;-66
2021/04/06 20:34:26;;;;;;;3.22;1.75;;;;;;;0.59;69.03;99128.81;10504604;28;20047;-66
2021/04/06 20:39:30;;;;;;;2.13;1.20;;;;;;;0.62;69.12;99123.59;10503721;28;20068;-66
2021/04/06 20:44:31;;;;;;;1.83;0.80;;;;;;;0.60;67.93;99130.53;10502917;28;20486;-67
2021/04/06 20:49:32;;;;;;;1.98;1.00;;;;;;;0.53;67.07;99119.34;10504805;28;20036;-65
2021/04/06 20:54:33;;;;;;;4.10;1.60;;;;;;;0.42;67.23;99132.34;10503088;28;20037;-66
2021/04/06 20:59:35;;;;;;;1.92;1.00;;;;;;;0.32;67.31;99130.69;10500863;28;20069;-65
2021/04/06 21:04:36;;;;;;;1.85;1.08;;;;;;;0.34;67.41;99133.25;10483079;28;20045;-66
2021/04/06 21:09:37;;;;;;;1.40;1.30;;;;;;;0.20;68.05;99135.91;10500866;28;20469;-66
2021/04/06 21:14:40;;;;;;;1.52;1.27;;;;;;;0.10;68.24;99135.09;10482535;28;20490;-65
2021/04/06 21:19:41;;;;;;;1.73;1.50;;;;;;;0.09;68.18;99138.56;10500882;28;20442;-65
2021/04/06 21:24:43;;;;;;;2.20;2.00;;;;;;;0.24;67.40;99151.41;10501160;28;20038;-65
2021/04/06 21:29:44;;;;;;;1.77;1.52;;;;;;;0.25;67.44;99152.25;10500986;28;20039;-65
2021/04/06 21:34:46;;;;;;;3.28;2.10;;;;;;;0.22;67.43;99149.66;10500492;28;20124;-67
2021/04/06 21:39:47;;;;;;;2.30;1.70;;;;;;;0.29;67.43;99138.44;10499745;28;20106;-65
2021/04/06 21:44:50;;;;;;;2.03;1.60;;;;;;;0.39;67.64;99145.28;10507534;28;20036;-67
2021/04/06 21:49:51;;;;;;;3.20;1.95;;;;;;;0.46;67.08;99152.16;10506568;28;20123;-67
2021/04/06 21:54:52;;;;;;;2.03;1.83;;;;;;;0.53;67.46;99150.38;10506859;28;20040;-66
2021/04/06 21:59:53;;;;;;;1.95;1.50;;;;;;;0.52;67.23;99148.66;10506328;28;20494;-66
2021/04/06 22:04:54;;;;;;;2.53;1.85;;;;;;;0.53;67.17;99147.78;10506173;28;20040;-65
2021/04/06 22:09:55;;;;;;;3.05;2.08;;;;;;;0.66;66.43;99149.44;10507682;28;20068;-66
2021/04/06 22:14:57;;;;;;;1.65;1.55;;;;;;;0.61;66.19;99140.00;10489644;28;20441;-65
2021/04/06 22:19:58;;;;;;;2.38;1.77;;;;;;;0.44;66.55;99150.44;10507147;28;20040;-64
2021/04/06 22:24:59;;;;;;;2.35;1.55;;;;;;;0.55;65.76;99148.66;10507259;28;20064;-63
2021/04/06 22:30:00;;;;;;;3.97;1.60;;;;;;;0.50;65.66;99148.69;10507285;28;20102;-65
2021/04/06 22:35:06;;;;;;;2.20;1.20;;;;;;;0.43;65.13;99146.13;10488383;28;20041;-63
2021/04/06 22:40:09;;;;;;;3.00;1.67;;;;;;;0.34;64.95;99151.34;10505743;28;20079;-65
2021/04/06 22:45:16;;;;;;;4.03;1.45;;;;;;;0.39;64.97;99141.84;10487650;28;20443;-63
2021/04/06 22:50:26;;;;;;;;;;;;;;;0.34;65.16;99139.28;10506139;28;20079;-65
2021/04/06 22:55:43;;;;;;;3.08;1.58;;;;;;;0.35;65.77;99148.75;10486399;28;19924;-63
2021/04/06 23:00:52;;;;;;;1.98;1.60;;;;;;;0.27;66.20;99149.66;10505438;28;20044;-64
2021/04/06 23:05:53;;;;;;;3.42;2.00;;;;;;;0.26;66.27;99148.78;10505423;28;20044;-64
2021/04/06 23:11:00;;;;;;;3.33;2.05;;;;;;;0.15;66.87;99158.31;10487373;28;20052;-66
2021/04/06 23:16:02;;;;;;;3.00;2.25;;;;;;;0.23;66.18;99156.56;10504512;28;20064;-64
2021/04/06 23:21:04;;;;;;;3.60;2.45;;;;;;;0.13;66.63;99152.28;10504602;28;20048;-64
2021/04/06 23:26:05;;;;;;;3.85;1.75;;;;;;;0.17;66.14;99154.84;10503743;28;20041;-65
2021/04/06 23:31:06;;;;;;;3.03;1.70;;;;;;;0.14;66.25;99161.78;10503869;28;20098;-64
2021/04/06 23:36:07;;;;;;;2.65;1.85;;;;;;;0.20;65.93;99166.91;10486085;28;20044;-64
2021/04/06 23:41:09;;;;;;;2.63;1.67;;;;;;;0.02;66.77;99173.00;10503104;28;20447;-65
2021/04/06 23:46:10;;;;;;;3.25;1.92;;;;;;;0.27;66.13;99167.75;10502442;28;20048;-66